Home > Products > Valid Products > MTR

000
SAUS43 KDLH 241058
MTRGNA
METAR KGNA 241056Z AUTO 24004KT 09/08 A2990 RMK AO1 SLP129 T00890083





000
SAUS43 KDLH 240957
MTRGNA
METAR KGNA 240956Z AUTO 22003KT 09/08 A2991 RMK AO1 SLP133 T00890083





000
SAUS43 KDLH 240957
MTRGNA
METAR KGNA 240956Z AUTO 22003KT 09/08 A2991 RMK AO1 SLP133 T00890083





000
SAUS43 KDLH 240857
MTRGNA
METAR KGNA 240856Z AUTO 00000KT 09/08 A2992 RMK AO1 SLP134 T00890083
56005





000
SAUS43 KDLH 240757
MTRGNA
METAR KGNA 240756Z AUTO 00000KT 09/08 A2992 RMK AO1 SLP135 T00890083





000
SAUS43 KDLH 240657
MTRGNA
METAR KGNA 240656Z AUTO 00000KT 09/08 A2993 RMK AO1 SLP137 T00890083





000
SAUS43 KDLH 240557
MTRGNA
METAR KGNA 240556Z AUTO 00000KT 09/08 A2993 RMK AO1 SLP139 T00890078
10094 20083 401000061 56005





000
SAUS43 KDLH 240458
MTRGNA
METAR KGNA 240456Z AUTO 00000KT 09/08 A2994 RMK AO1 SLP140 T00890078





000
SAUS43 KDLH 240458
MTRGNA
METAR KGNA 240456Z AUTO 00000KT 09/08 A2994 RMK AO1 SLP140 T00890078





000
SAUS43 KDLH 240357
MTRGNA
METAR KGNA 240356Z AUTO 00000KT 09/08 A2994 RMK AO1 SLP140 T00890078





000
SAUS43 KDLH 240357
MTRGNA
METAR KGNA 240356Z AUTO 00000KT 09/08 A2994 RMK AO1 SLP140 T00890078





000
SAUS43 KDLH 240257
MTRGNA
METAR KGNA 240256Z AUTO 25003KT 08/08 A2995 RMK AO1 SLP144 T00830078
58001





000
SAUS43 KDLH 240257
MTRGNA
METAR KGNA 240256Z AUTO 25003KT 08/08 A2995 RMK AO1 SLP144 T00830078
58001





000
SAUS43 KDLH 240158
MTRGNA
METAR KGNA 240156Z AUTO 25003KT 09/08 A2995 RMK AO1 SLP145 T00890078





000
SAUS43 KDLH 240158
MTRGNA
METAR KGNA 240156Z AUTO 25003KT 09/08 A2995 RMK AO1 SLP145 T00890078





000
SAUS43 KDLH 240058
MTRGNA
METAR KGNA 240056Z AUTO 00000KT 09/08 A2995 RMK AO1 SLP146 T00890078





000
SAUS43 KDLH 232357
MTRGNA
METAR KGNA 232356Z AUTO 20003KT 08/08 A2995 RMK AO1 SLP145 T00830078
10089 20083 53001





000
SAUS43 KDLH 232257
MTRGNA
METAR KGNA 232256Z AUTO 00000KT 09/08 A2995 RMK AO1 SLP144 T00890083





000
SAUS43 KDLH 232158
MTRGNA
METAR KGNA 232156Z AUTO 00000KT 09/08 A2995 RMK AO1 SLP145 T00890078





000
SAUS43 KDLH 232058
MTRGNA
METAR KGNA 232056Z AUTO 24003KT 08/08 A2995 RMK AO1 SLP144 T00830083
56006





000
SAUS43 KDLH 231957
MTRGNA
METAR KGNA 231956Z AUTO 26003KT 09/08 A2995 RMK AO1 SLP146 T00890083





000
SAUS43 KDLH 231957
MTRGNA
METAR KGNA 231956Z AUTO 26003KT 09/08 A2995 RMK AO1 SLP146 T00890083





000
SAUS43 KDLH 231857
MTRGNA
METAR KGNA 231856Z AUTO 24005KT 09/08 A2996 RMK AO1 SLP148 T00890083





000
SAUS43 KDLH 231857
MTRGNA
METAR KGNA 231856Z AUTO 24005KT 09/08 A2996 RMK AO1 SLP148 T00890083





000
SAUS43 KDLH 231757
MTRGNA
METAR KGNA 231756Z AUTO 27003KT 09/08 A2997 RMK AO1 SLP151 60001
T00890078 10094 20083 58006





000
SAUS43 KDLH 231757
MTRGNA
METAR KGNA 231756Z AUTO 27003KT 09/08 A2997 RMK AO1 SLP151 60001
T00890078 10094 20083 58006





000
SAUS43 KDLH 231657
MTRGNA
METAR KGNA 231656Z AUTO 00000KT 09/08 A2998 RMK AO1 SLP157 T00890078





000
SAUS43 KDLH 231657
MTRGNA
METAR KGNA 231656Z AUTO 00000KT 09/08 A2998 RMK AO1 SLP157 T00890078





000
SAUS43 KDLH 231557
MTRGNA
METAR KGNA 231556Z AUTO 26004KT 09/08 A2999 RMK AO1 SLP158 T00940078





000
SAUS43 KDLH 231457
MTRGNA
METAR KGNA 231456Z AUTO 24003KT 09/08 A2999 RMK AO1 SLP156 P0001
60001 T00940078 58003





000
SAUS43 KDLH 231457
MTRGNA
METAR KGNA 231456Z AUTO 24003KT 09/08 A2999 RMK AO1 SLP156 P0001
60001 T00940078 58003





000
SAUS43 KDLH 231357
MTRGNA
METAR KGNA 231356Z AUTO 00000KT 08/07 A3000 RMK AO1 SLP161 T00830072





000
SAUS43 KDLH 231258
MTRGNA
METAR KGNA 231256Z AUTO 00000KT 09/06 A3000 RMK AO1 SLP161 T00890061





000
SAUS43 KDLH 231157
MTRGNA
METAR KGNA 231156Z AUTO 00000KT 09/06 A2999 RMK AO1 SLP160 70001
T00890061 10100 20061 58009





000
SAUS43 KDLH 231057
MTRGNA
METAR KGNA 231056Z AUTO 00000KT 09/06 A3001 RMK AO1 SLP165 T00890061





000
SAUS43 KDLH 230957
MTRGNA
METAR KGNA 230956Z AUTO 06003KT 09/05 A3002 RMK AO1 SLP168 T00940050





000
SAUS43 KDLH 230957
MTRGNA
METAR KGNA 230956Z AUTO 06003KT 09/05 A3002 RMK AO1 SLP168 T00940050





000
SAUS43 KDLH 230857
MTRGNA
METAR KGNA 230856Z AUTO 03004KT 09/06 A3002 RMK AO1 SLP170 T00890056
58008





000
SAUS43 KDLH 230757
MTRGNA
METAR KGNA 230756Z AUTO 04004KT 07/04 A3004 RMK AO1 SLP176 T00720044





000
SAUS43 KDLH 230657
MTRGNA
METAR KGNA 230656Z AUTO 00000KT 07/04 A3004 RMK AO1 SLP177 T00670044





000
SAUS43 KDLH 230557
MTRGNA
METAR KGNA 230556Z AUTO 00000KT 07/05 A3005 RMK AO1 SLP179 60001
T00720050 10106 20072 401060006 56011





000
SAUS43 KDLH 230457
MTRGNA
METAR KGNA 230456Z AUTO 00000KT 08/06 A3005 RMK AO1 SLP181 P0001
T00780056





000
SAUS43 KDLH 230457
MTRGNA
METAR KGNA 230456Z AUTO 00000KT 08/06 A3005 RMK AO1 SLP181 P0001
T00780056





000
SAUS43 KDLH 230357
MTRGNA
METAR KGNA 230356Z AUTO VRB03KT 09/03 A3007 RMK AO1 SLP186 T00940028





000
SAUS43 KDLH 230357
MTRGNA
METAR KGNA 230356Z AUTO VRB03KT 09/03 A3007 RMK AO1 SLP186 T00940028





000
SAUS43 KDLH 230257
MTRGNA
METAR KGNA 230256Z AUTO 04003KT 11/03 A3008 RMK AO1 SLP190 T01060028
56012





000
SAUS43 KDLH 230157
MTRGNA
METAR KGNA 230156Z AUTO 05008KT 10/03 A3009 RMK AO1 SLP193 T01000028





000
SAUS43 KDLH 230157
MTRGNA
METAR KGNA 230156Z AUTO 05008KT 10/03 A3009 RMK AO1 SLP193 T01000028





000
SAUS43 KDLH 230057
MTRGNA
METAR KGNA 230056Z AUTO 04005KT 09/02 A3010 RMK AO1 SLP198 T00890022





000
SAUS43 KDLH 230057
MTRGNA
METAR KGNA 230056Z AUTO 04005KT 09/02 A3010 RMK AO1 SLP198 T00890022





000
SAUS43 KDLH 222357
MTRGNA
METAR KGNA 222356Z AUTO 05007KT 08/02 A3012 RMK AO1 SLP203 T00830017
10106 20078 56020





000
SAUS43 KDLH 222357
MTRGNA
METAR KGNA 222356Z AUTO 05007KT 08/02 A3012 RMK AO1 SLP203 T00830017
10106 20078 56020





000
SAUS43 KDLH 222257
MTRGNA
METAR KGNA 222256Z AUTO 06008KT 08/02 A3013 RMK AO1 SLP210 T00780022





000
SAUS43 KDLH 222257
MTRGNA
METAR KGNA 222256Z AUTO 06008KT 08/02 A3013 RMK AO1 SLP210 T00780022





000
SAUS43 KDLH 222157
MTRGNA
METAR KGNA 222156Z AUTO 06008KT 09/01 A3015 RMK AO1 SLP216 T00890011





000
SAUS43 KDLH 222057
MTRGNA
METAR KGNA 222056Z AUTO 06007KT 08/04 A3018 RMK AO1 SLP227 T00830039
56017





000
SAUS43 KDLH 221957
MTRGNA
METAR KGNA 221956Z AUTO 10004KT 09/04 A3019 RMK AO1 SLP230 T00890039





000
SAUS43 KDLH 221857
MTRGNA
METAR KGNA 221856Z AUTO VRB03KT 11/04 A3020 RMK AO1 SLP233 T01060044





000
SAUS43 KDLH 221757
MTRGNA
METAR KGNA 221756Z AUTO 16007KT 08/04 A3023 RMK AO1 SLP241 T00830039
10083 20078 58015





000
SAUS43 KDLH 221757
MTRGNA
METAR KGNA 221756Z AUTO 16007KT 08/04 A3023 RMK AO1 SLP241 T00830039
10083 20078 58015





000
SAUS43 KDLH 221657
MTRGNA
METAR KGNA 221656Z AUTO 18008KT 08/04 A3025 RMK AO1 SLP249 T00830039





000
SAUS43 KDLH 221657
MTRGNA
METAR KGNA 221656Z AUTO 18008KT 08/04 A3025 RMK AO1 SLP249 T00830039





000
SAUS43 KDLH 221557
MTRGNA
METAR KGNA 221556Z AUTO 19009KT 08/04 A3026 RMK AO1 SLP253 T00830039





000
SAUS43 KDLH 221557
MTRGNA
METAR KGNA 221556Z AUTO 19009KT 08/04 A3026 RMK AO1 SLP253 T00830039





000
SAUS43 KDLH 221457
MTRGNA
METAR KGNA 221456Z AUTO 19012KT 08/04 A3027 RMK AO1 SLP257 T00830044
51002





000
SAUS43 KDLH 221357
MTRGNA
METAR KGNA 221356Z AUTO 19008KT 08/06 A3027 RMK AO1 SLP256 T00780056





000
SAUS43 KDLH 221257
MTRGNA
METAR KGNA 221256Z AUTO 18008KT 08/06 A3027 RMK AO1 SLP257 T00780056





000
SAUS43 KDLH 221157
MTRGNA
METAR KGNA 221156Z AUTO 19008KT 08/06 A3027 RMK AO1 SLP255 T00780056
10078 20006 53005





000
SAUS43 KDLH 221057
MTRGNA
METAR KGNA 221056Z AUTO 00000KT 01/00 A3026 RMK AO1 SLP256 T00110000





000
SAUS43 KDLH 221057
MTRGNA
METAR KGNA 221056Z AUTO 00000KT 01/00 A3026 RMK AO1 SLP256 T00110000





000
SAUS43 KDLH 220957
MTRGNA
METAR KGNA 220956Z AUTO 35003KT 01/01 A3026 RMK AO1 SLP254 T00110006





000
SAUS43 KDLH 220957
MTRGNA
METAR KGNA 220956Z AUTO 35003KT 01/01 A3026 RMK AO1 SLP254 T00110006





000
SAUS43 KDLH 220857
MTRGNA
METAR KGNA 220856Z AUTO 02003KT 02/01 A3025 RMK AO1 SLP252 T00170006
56005





000
SAUS43 KDLH 220757
MTRGNA
METAR KGNA 220756Z AUTO 02004KT 02/01 A3026 RMK AO1 SLP254 T00170006





000
SAUS43 KDLH 220658
MTRGNA
METAR KGNA 220656Z AUTO 04003KT 03/02 A3026 RMK AO1 SLP254 T00330017





000
SAUS43 KDLH 220557
MTRGNA
METAR KGNA 220556Z AUTO 10006KT 07/03 A3027 RMK AO1 SLP256 T00670033
10067 20056 400670044 55002





000
SAUS43 KDLH 220557
MTRGNA
METAR KGNA 220556Z AUTO 10006KT 07/03 A3027 RMK AO1 SLP256 T00670033
10067 20056 400670044 55002





000
SAUS43 KDLH 220457
MTRGNA
METAR KGNA 220456Z AUTO 09007KT 07/03 A3027 RMK AO1 SLP256 T00670033





000
SAUS43 KDLH 220457
MTRGNA
METAR KGNA 220456Z AUTO 09007KT 07/03 A3027 RMK AO1 SLP256 T00670033





000
SAUS43 KDLH 220357
MTRGNA
METAR KGNA 220356Z AUTO 08010KT 06/03 A3027 RMK AO1 SLP257 T00610033





000
SAUS43 KDLH 220357
MTRGNA
METAR KGNA 220356Z AUTO 08010KT 06/03 A3027 RMK AO1 SLP257 T00610033





000
SAUS43 KDLH 220257
MTRGNA
METAR KGNA 220256Z AUTO 09010KT 06/03 A3027 RMK AO1 SLP258 T00560028
52005





000
SAUS43 KDLH 220157
MTRGNA
METAR KGNA 220156Z AUTO 09010KT 06/02 A3027 RMK AO1 SLP258 T00560017





000
SAUS43 KDLH 220157
MTRGNA
METAR KGNA 220156Z AUTO 09010KT 06/02 A3027 RMK AO1 SLP258 T00560017





000
SAUS43 KDLH 220057
MTRGNA
METAR KGNA 220056Z AUTO 08012KT 06/02 A3026 RMK AO1 SLP255 T00560017





000
SAUS43 KDLH 212357
MTRGNA
METAR KGNA 212356Z AUTO 09009KT 06/02 A3026 RMK AO1 SLP254 T00560017
10067 20056 56007





000
SAUS43 KDLH 212257
MTRGNA
METAR KGNA 212256Z AUTO 09007KT 06/01 A3026 RMK AO1 SLP255 T00560011





000
SAUS43 KDLH 212257
MTRGNA
METAR KGNA 212256Z AUTO 09007KT 06/01 A3026 RMK AO1 SLP255 T00560011





000
SAUS43 KDLH 212157
MTRGNA
METAR KGNA 212156Z AUTO 09006KT 06/01 A3027 RMK AO1 SLP258 T00610006





000
SAUS43 KDLH 212157
MTRGNA
METAR KGNA 212156Z AUTO 09006KT 06/01 A3027 RMK AO1 SLP258 T00610006





000
SAUS43 KDLH 212057
MTRGNA
METAR KGNA 212056Z AUTO 09005KT 07/01 A3028 RMK AO1 SLP260 T00670006
56009





000
SAUS43 KDLH 211957
MTRGNA
METAR KGNA 211956Z AUTO 10006KT 06/01 A3029 RMK AO1 SLP263 T00610006





000
SAUS43 KDLH 211957
MTRGNA
METAR KGNA 211956Z AUTO 10006KT 06/01 A3029 RMK AO1 SLP263 T00610006





000
SAUS43 KDLH 211857
MTRGNA
METAR KGNA 211856Z AUTO 08007KT 06/00 A3029 RMK AO1 SLP263 T00610000





000
SAUS43 KDLH 211757
MTRGNA
METAR KGNA 211756Z AUTO 09008KT 06/00 A3031 RMK AO1 SLP269 T00560000
10056 20044 50002





000
SAUS43 KDLH 211658
MTRGNA
METAR KGNA 211656Z AUTO 11008KT 06/01 A3031 RMK AO1 SLP271 T00560006





000
SAUS43 KDLH 211658
MTRGNA
METAR KGNA 211656Z AUTO 11008KT 06/01 A3031 RMK AO1 SLP271 T00560006





000
SAUS43 KDLH 211557
MTRGNA
METAR KGNA 211556Z AUTO 07006KT 05/01 A3030 RMK AO1 SLP267 T00500006





000
SAUS43 KDLH 211557
MTRGNA
METAR KGNA 211556Z AUTO 07006KT 05/01 A3030 RMK AO1 SLP267 T00500006





000
SAUS43 KDLH 211457
MTRGNA
METAR KGNA 211456Z AUTO 05004KT 05/00 A3030 RMK AO1 SLP267 T00500000
51014





000
SAUS43 KDLH 211357
MTRGNA
METAR KGNA 211356Z AUTO 01003KT 04/00 A3029 RMK AO1 SLP263 T00440000





000
SAUS43 KDLH 211257
MTRGNA
METAR KGNA 211256Z AUTO VRB05KT 04/M01 A3027 RMK AO1 SLP257
T00441006





000
SAUS43 KDLH 211157
MTRGNA
METAR KGNA 211156Z AUTO 03003KT 04/M01 A3026 RMK AO1 SLP253
T00441006 10056 20044 51015





000
SAUS43 KDLH 211157
MTRGNA
METAR KGNA 211156Z AUTO 03003KT 04/M01 A3026 RMK AO1 SLP253
T00441006 10056 20044 51015





    US Dept of Commerce
    National Oceanic and Atmospheric Administration
    National Weather Service
    1325 East West Highway
    Silver Spring, MD 20910
    Page Author: NWS Internet Services Team
Disclaimer
Information Quality
Credits
Glossary
Privacy Policy
Freedom of Information Act (FOIA)
About Us
Career Opportunities